sensor_id;sensor_type;location;lat;lon;timestamp;pressure;altitude;pressure_sealevel;temperature;humidity
33496;BME280;19836;55.812;37.560;2022-07-23T03:12:19;99562.13;;;19.25;72.11
33496;BME280;19836;55.812;37.560;2022-07-23T03:14:45;99563.44;;;19.32;72.42
33496;BME280;19836;55.812;37.560;2022-07-23T03:17:11;99565.75;;;19.38;72.38
33496;BME280;19836;55.812;37.560;2022-07-23T03:19:37;99566.19;;;19.45;72.37
33496;BME280;19836;55.812;37.560;2022-07-23T03:22:04;99570.34;;;19.50;72.26
33496;BME280;19836;55.812;37.560;2022-07-23T03:24:31;99566.34;;;19.56;72.31
33496;BME280;19836;55.812;37.560;2022-07-23T03:27:16;99565.47;;;19.68;71.79
33496;BME280;19836;55.812;37.560;2022-07-23T03:29:42;99572.88;;;19.78;71.93
33496;BME280;19836;55.812;37.560;2022-07-23T03:32:08;99567.66;;;19.88;71.24
33496;BME280;19836;55.812;37.560;2022-07-23T03:34:34;99559.72;;;19.97;71.37
33496;BME280;19836;55.812;37.560;2022-07-23T03:37:00;99569.94;;;20.06;70.71
33496;BME280;19836;55.812;37.560;2022-07-23T03:39:26;99568.56;;;20.13;70.71
33496;BME280;19836;55.812;37.560;2022-07-23T03:41:53;99568.13;;;20.19;70.82
33496;BME280;19836;55.812;37.560;2022-07-23T03:44:19;99564.97;;;20.25;70.47
33496;BME280;19836;55.812;37.560;2022-07-23T03:46:45;99567.22;;;20.31;70.44
33496;BME280;19836;55.812;37.560;2022-07-23T03:49:11;99566.91;;;20.36;70.18
33496;BME280;19836;55.812;37.560;2022-07-23T03:51:37;99568.94;;;20.45;69.77
33496;BME280;19836;55.812;37.560;2022-07-23T03:54:03;99570.13;;;20.53;69.58
33496;BME280;19836;55.812;37.560;2022-07-23T03:56:31;99567.59;;;20.63;69.21
33496;BME280;19836;55.812;37.560;2022-07-23T03:58:57;99564.53;;;20.67;69.30
33496;BME280;19836;55.812;37.560;2022-07-23T04:01:27;99563.13;;;20.74;69.45
33496;BME280;19836;55.812;37.560;2022-07-23T04:04:23;99569.47;;;20.86;69.16
33496;BME280;19836;55.812;37.560;2022-07-23T04:07:12;99574.16;;;20.96;68.46
33496;BME280;19836;55.812;37.560;2022-07-23T04:09:45;99572.50;;;21.06;68.11
33496;BME280;19836;55.812;37.560;2022-07-23T04:12:36;99569.81;;;21.17;67.88
33496;BME280;19836;55.812;37.560;2022-07-23T04:15:25;99572.06;;;21.23;67.62
33496;BME280;19836;55.812;37.560;2022-07-23T04:18:17;99570.38;;;21.33;67.15
33496;BME280;19836;55.812;37.560;2022-07-23T04:21:07;99581.22;;;21.46;66.71
33496;BME280;19836;55.812;37.560;2022-07-23T04:24:30;99574.84;;;21.58;66.21
33496;BME280;19836;55.812;37.560;2022-07-23T04:27:34;99566.91;;;21.66;65.63
33496;BME280;19836;55.812;37.560;2022-07-23T04:30:27;99570.59;;;21.77;65.24
33496;BME280;19836;55.812;37.560;2022-07-23T04:33:04;99575.31;;;21.86;65.03
33496;BME280;19836;55.812;37.560;2022-07-23T04:35:34;99570.38;;;21.91;64.64
33496;BME280;19836;55.812;37.560;2022-07-23T05:23:26;99547.09;;;23.49;58.51
33496;BME280;19836;55.812;37.560;2022-07-23T05:26:21;99550.53;;;23.62;57.72
33496;BME280;19836;55.812;37.560;2022-07-23T05:28:57;99558.97;;;23.70;57.34
33496;BME280;19836;55.812;37.560;2022-07-23T05:35:10;99554.59;;;23.88;57.17
33496;BME280;19836;55.812;37.560;2022-07-23T05:37:40;99543.16;;;23.94;57.27
33496;BME280;19836;55.812;37.560;2022-07-23T05:40:08;99550.09;;;23.98;57.30
33496;BME280;19836;55.812;37.560;2022-07-23T05:42:40;99543.81;;;24.07;56.43
33496;BME280;19836;55.812;37.560;2022-07-23T05:49:07;99542.91;;;24.27;55.13
33496;BME280;19836;55.812;37.560;2022-07-23T05:52:12;99537.63;;;24.35;54.92
33496;BME280;19836;55.812;37.560;2022-07-23T05:55:22;99538.94;;;24.41;54.52
33496;BME280;19836;55.812;37.560;2022-07-23T05:57:48;99542.00;;;24.47;54.24
33496;BME280;19836;55.812;37.560;2022-07-23T06:00:14;99548.38;;;24.57;54.14
33496;BME280;19836;55.812;37.560;2022-07-23T06:02:41;99545.13;;;24.63;53.84
33496;BME280;19836;55.812;37.560;2022-07-23T06:05:09;99540.84;;;24.70;53.70
33496;BME280;19836;55.812;37.560;2022-07-23T06:07:35;99535.50;;;24.78;53.27
33496;BME280;19836;55.812;37.560;2022-07-23T06:10:07;99540.28;;;24.86;53.07
33496;BME280;19836;55.812;37.560;2022-07-23T06:12:34;99549.69;;;24.93;53.10
33496;BME280;19836;55.812;37.560;2022-07-23T06:15:01;99538.44;;;24.96;53.26
33496;BME280;19836;55.812;37.560;2022-07-23T06:17:30;99536.00;;;25.02;53.25
33496;BME280;19836;55.812;37.560;2022-07-23T06:19:55;99536.16;;;25.10;53.25
33496;BME280;19836;55.812;37.560;2022-07-23T06:22:22;99532.09;;;25.14;53.06
33496;BME280;19836;55.812;37.560;2022-07-23T06:24:48;99536.31;;;25.18;52.63
33496;BME280;19836;55.812;37.560;2022-07-23T06:27:14;99529.28;;;25.25;52.35
33496;BME280;19836;55.812;37.560;2022-07-23T06:29:41;99531.88;;;25.36;52.28
33496;BME280;19836;55.812;37.560;2022-07-23T06:32:07;99537.34;;;25.46;51.87
33496;BME280;19836;55.812;37.560;2022-07-23T06:34:33;99535.63;;;25.54;51.87
33496;BME280;19836;55.812;37.560;2022-07-23T06:36:59;99534.31;;;25.58;51.58
33496;BME280;19836;55.812;37.560;2022-07-23T06:39:26;99523.78;;;25.63;51.31
33496;BME280;19836;55.812;37.560;2022-07-23T06:41:52;99533.16;;;25.70;51.00
33496;BME280;19836;55.812;37.560;2022-07-23T06:44:18;99522.31;;;25.78;51.06
33496;BME280;19836;55.812;37.560;2022-07-23T06:46:46;99524.19;;;25.87;51.05
33496;BME280;19836;55.812;37.560;2022-07-23T06:49:12;99522.31;;;25.97;50.83
33496;BME280;19836;55.812;37.560;2022-07-23T06:51:38;99530.66;;;26.05;50.66
33496;BME280;19836;55.812;37.560;2022-07-23T06:54:04;99535.59;;;26.11;50.32
33496;BME280;19836;55.812;37.560;2022-07-23T06:56:30;99524.59;;;26.11;49.89
33496;BME280;19836;55.812;37.560;2022-07-23T06:58:56;99532.25;;;26.17;49.67
33496;BME280;19836;55.812;37.560;2022-07-23T07:01:23;99525.72;;;26.18;49.61
33496;BME280;19836;55.812;37.560;2022-07-23T07:03:49;99523.69;;;26.20;49.50
33496;BME280;19836;55.812;37.560;2022-07-23T07:06:15;99532.66;;;26.22;49.53
33496;BME280;19836;55.812;37.560;2022-07-23T07:08:41;99532.06;;;26.28;49.34
33496;BME280;19836;55.812;37.560;2022-07-23T07:11:09;99525.09;;;26.34;49.08
33496;BME280;19836;55.812;37.560;2022-07-23T07:13:35;99529.09;;;26.39;49.14
33496;BME280;19836;55.812;37.560;2022-07-23T07:16:02;99528.50;;;26.45;48.80
33496;BME280;19836;55.812;37.560;2022-07-23T07:18:28;99524.16;;;26.52;48.93
33496;BME280;19836;55.812;37.560;2022-07-23T07:20:54;99521.53;;;26.60;48.93
33496;BME280;19836;55.812;37.560;2022-07-23T07:23:19;99527.28;;;26.67;48.56
33496;BME280;19836;55.812;37.560;2022-07-23T07:25:46;99526.84;;;26.71;47.97
33496;BME280;19836;55.812;37.560;2022-07-23T07:28:13;99523.16;;;26.80;47.43
33496;BME280;19836;55.812;37.560;2022-07-23T07:30:38;99524.69;;;26.92;47.83
33496;BME280;19836;55.812;37.560;2022-07-23T07:33:04;99523.91;;;27.00;48.11
33496;BME280;19836;55.812;37.560;2022-07-23T07:35:30;99523.91;;;27.00;47.78
33496;BME280;19836;55.812;37.560;2022-07-23T07:37:58;99523.59;;;27.03;47.42
33496;BME280;19836;55.812;37.560;2022-07-23T07:40:25;99520.94;;;27.11;46.84
33496;BME280;19836;55.812;37.560;2022-07-23T07:42:53;99522.94;;;27.18;46.77
33496;BME280;19836;55.812;37.560;2022-07-23T07:45:23;99526.41;;;27.20;46.76
33496;BME280;19836;55.812;37.560;2022-07-23T07:47:51;99528.50;;;27.09;46.60
33496;BME280;19836;55.812;37.560;2022-07-23T07:50:20;99532.22;;;26.90;46.89
33496;BME280;19836;55.812;37.560;2022-07-23T07:52:46;99526.44;;;26.66;47.19
33496;BME280;19836;55.812;37.560;2022-07-23T07:55:12;99535.16;;;26.52;47.26
33496;BME280;19836;55.812;37.560;2022-07-23T07:57:39;99531.25;;;26.45;47.53
33496;BME280;19836;55.812;37.560;2022-07-23T08:00:09;99532.28;;;26.44;47.47
33496;BME280;19836;55.812;37.560;2022-07-23T08:02:50;99536.28;;;26.59;47.58
33496;BME280;19836;55.812;37.560;2022-07-23T08:05:24;99527.84;;;26.97;46.61
33496;BME280;19836;55.812;37.560;2022-07-23T08:07:51;99532.69;;;27.30;46.02
33496;BME280;19836;55.812;37.560;2022-07-23T08:10:17;99530.19;;;27.37;45.51
33496;BME280;19836;55.812;37.560;2022-07-23T08:12:46;99530.03;;;27.38;45.07
33496;BME280;19836;55.812;37.560;2022-07-23T08:15:15;99528.22;;;27.29;44.48
33496;BME280;19836;55.812;37.560;2022-07-23T08:17:42;99531.75;;;27.22;44.97
33496;BME280;19836;55.812;37.560;2022-07-23T08:23:00;99531.59;;;27.23;44.97
33496;BME280;19836;55.812;37.560;2022-07-23T08:25:33;99511.47;;;27.40;44.88
33496;BME280;19836;55.812;37.560;2022-07-23T08:28:02;99525.81;;;27.61;44.48
33496;BME280;19836;55.812;37.560;2022-07-23T08:30:29;99516.94;;;27.75;43.78
33496;BME280;19836;55.812;37.560;2022-07-23T08:33:00;99515.06;;;27.93;43.76
33496;BME280;19836;55.812;37.560;2022-07-23T08:35:30;99510.69;;;28.08;43.42
33496;BME280;19836;55.812;37.560;2022-07-23T08:37:57;99511.84;;;28.23;42.85
33496;BME280;19836;55.812;37.560;2022-07-23T08:40:26;99511.94;;;28.39;42.42
33496;BME280;19836;55.812;37.560;2022-07-23T08:42:52;99508.88;;;28.42;42.00
33496;BME280;19836;55.812;37.560;2022-07-23T08:45:21;99510.97;;;28.48;42.35
33496;BME280;19836;55.812;37.560;2022-07-23T08:47:51;99512.84;;;28.40;42.46
33496;BME280;19836;55.812;37.560;2022-07-23T08:50:17;99507.72;;;28.53;42.75
33496;BME280;19836;55.812;37.560;2022-07-23T08:52:43;99498.09;;;28.57;42.95
33496;BME280;19836;55.812;37.560;2022-07-23T08:55:09;99504.88;;;28.70;42.89
33496;BME280;19836;55.812;37.560;2022-07-23T08:57:36;99499.06;;;28.89;42.48
33496;BME280;19836;55.812;37.560;2022-07-23T09:00:04;99492.88;;;28.95;41.65
33496;BME280;19836;55.812;37.560;2022-07-23T09:02:30;99499.72;;;28.75;41.95
33496;BME280;19836;55.812;37.560;2022-07-23T09:04:56;99500.09;;;28.47;41.92
33496;BME280;19836;55.812;37.560;2022-07-23T09:07:22;99498.06;;;28.31;41.58
33496;BME280;19836;55.812;37.560;2022-07-23T09:10:05;99497.78;;;28.60;41.42
33496;BME280;19836;55.812;37.560;2022-07-23T09:12:31;99493.34;;;28.83;40.83
33496;BME280;19836;55.812;37.560;2022-07-23T09:15:04;99494.31;;;28.99;40.24
33496;BME280;19836;55.812;37.560;2022-07-23T09:17:39;99490.22;;;29.19;40.75
33496;BME280;19836;55.812;37.560;2022-07-23T09:20:15;99486.09;;;29.39;40.78
33496;BME280;19836;55.812;37.560;2022-07-23T09:22:45;99485.94;;;29.49;40.35
33496;BME280;19836;55.812;37.560;2022-07-23T09:25:14;99490.13;;;29.61;39.85
33496;BME280;19836;55.812;37.560;2022-07-23T09:30:25;99492.25;;;31.31;37.59
33496;BME280;19836;55.812;37.560;2022-07-23T09:38:11;99476.88;;;36.76;30.49
33496;BME280;19836;55.812;37.560;2022-07-23T09:40:37;99482.69;;;37.76;28.86
33496;BME280;19836;55.812;37.560;2022-07-23T09:43:03;99478.28;;;38.42;27.52
33496;BME280;19836;55.812;37.560;2022-07-23T09:45:29;99488.72;;;39.13;26.47
33496;BME280;19836;55.812;37.560;2022-07-23T09:48:16;99481.31;;;39.96;25.50
33496;BME280;19836;55.812;37.560;2022-07-23T09:50:43;99485.38;;;40.64;24.78
33496;BME280;19836;55.812;37.560;2022-07-23T09:53:23;99479.63;;;41.33;23.59
33496;BME280;19836;55.812;37.560;2022-07-23T09:55:51;99469.56;;;41.76;22.89
33496;BME280;19836;55.812;37.560;2022-07-23T09:58:17;99480.78;;;42.04;22.70
33496;BME280;19836;55.812;37.560;2022-07-23T10:00:45;99477.22;;;42.09;22.12
33496;BME280;19836;55.812;37.560;2022-07-23T10:03:15;99475.25;;;41.65;22.29
33496;BME280;19836;55.812;37.560;2022-07-23T10:06:00;99475.72;;;41.62;21.97
33496;BME280;19836;55.812;37.560;2022-07-23T10:08:46;99462.78;;;41.89;22.08
33496;BME280;19836;55.812;37.560;2022-07-23T10:11:36;99463.59;;;42.50;21.74
33496;BME280;19836;55.812;37.560;2022-07-23T10:14:18;99460.91;;;42.77;21.42
33496;BME280;19836;55.812;37.560;2022-07-23T10:16:55;99464.34;;;42.79;21.08
33496;BME280;19836;55.812;37.560;2022-07-23T10:19:21;99465.31;;;40.72;22.21
33496;BME280;19836;55.812;37.560;2022-07-23T10:21:51;99466.78;;;39.10;24.04
33496;BME280;19836;55.812;37.560;2022-07-23T10:27:30;99460.66;;;40.77;22.92
33496;BME280;19836;55.812;37.560;2022-07-23T10:37:51;99448.44;;;40.49;22.16
33496;BME280;19836;55.812;37.560;2022-07-23T10:40:21;99450.00;;;38.50;23.89
33496;BME280;19836;55.812;37.560;2022-07-23T10:42:52;99438.44;;;36.72;25.86
33496;BME280;19836;55.812;37.560;2022-07-23T10:45:30;99438.34;;;37.42;26.34
33496;BME280;19836;55.812;37.560;2022-07-23T10:48:11;99432.88;;;40.00;23.66
33496;BME280;19836;55.812;37.560;2022-07-23T10:50:38;99424.09;;;41.28;22.93
33496;BME280;19836;55.812;37.560;2022-07-23T10:53:15;99435.50;;;42.39;21.65
33496;BME280;19836;55.812;37.560;2022-07-23T10:55:45;99426.69;;;42.90;20.73
33496;BME280;19836;55.812;37.560;2022-07-23T10:58:17;99428.75;;;43.38;20.15
33496;BME280;19836;55.812;37.560;2022-07-23T11:00:44;99423.75;;;43.71;19.16
33496;BME280;19836;55.812;37.560;2022-07-23T11:03:31;99420.31;;;44.22;19.04
33496;BME280;19836;55.812;37.560;2022-07-23T11:05:58;99415.53;;;44.23;18.71
33496;BME280;19836;55.812;37.560;2022-07-23T11:08:24;99414.88;;;44.16;18.59
33496;BME280;19836;55.812;37.560;2022-07-23T11:13:35;99419.47;;;44.58;18.76
33496;BME280;19836;55.812;37.560;2022-07-23T11:24:07;99414.66;;;45.05;18.37
33496;BME280;19836;55.812;37.560;2022-07-23T11:27:11;99411.19;;;44.93;18.15
33496;BME280;19836;55.812;37.560;2022-07-23T11:29:38;99408.41;;;44.15;17.99
33496;BME280;19836;55.812;37.560;2022-07-23T11:32:24;99409.44;;;44.09;18.20
33496;BME280;19836;55.812;37.560;2022-07-23T11:34:53;99402.53;;;43.69;18.04
33496;BME280;19836;55.812;37.560;2022-07-23T11:37:36;99405.84;;;43.87;18.29
33496;BME280;19836;55.812;37.560;2022-07-23T11:40:10;99400.31;;;42.41;19.19
33496;BME280;19836;55.812;37.560;2022-07-23T11:42:56;99402.19;;;39.76;21.51
33496;BME280;19836;55.812;37.560;2022-07-23T11:45:25;99400.00;;;37.80;23.24
33496;BME280;19836;55.812;37.560;2022-07-23T11:47:51;99395.47;;;36.60;24.84
33496;BME280;19836;55.812;37.560;2022-07-23T11:50:17;99396.84;;;35.66;26.01
33496;BME280;19836;55.812;37.560;2022-07-23T11:52:43;99389.66;;;35.05;26.75
33496;BME280;19836;55.812;37.560;2022-07-23T11:55:10;99378.63;;;35.38;26.73
33496;BME280;19836;55.812;37.560;2022-07-23T11:57:40;99395.97;;;36.37;26.78
33496;BME280;19836;55.812;37.560;2022-07-23T12:00:15;99383.84;;;37.82;25.36
33496;BME280;19836;55.812;37.560;2022-07-23T12:03:01;99386.28;;;36.66;25.88
33496;BME280;19836;55.812;37.560;2022-07-23T12:05:31;99379.44;;;35.25;26.53
33496;BME280;19836;55.812;37.560;2022-07-23T12:07:58;99384.25;;;34.44;27.16
33496;BME280;19836;55.812;37.560;2022-07-23T12:10:29;99383.44;;;33.88;28.37
33496;BME280;19836;55.812;37.560;2022-07-23T12:13:00;99371.50;;;33.46;28.92
33496;BME280;19836;55.812;37.560;2022-07-23T12:15:38;99368.31;;;33.07;29.63
33496;BME280;19836;55.812;37.560;2022-07-23T12:18:06;99370.94;;;33.29;30.21
33496;BME280;19836;55.812;37.560;2022-07-23T12:20:36;99367.03;;;36.19;28.13
33496;BME280;19836;55.812;37.560;2022-07-23T12:23:05;99366.72;;;38.93;25.61
33496;BME280;19836;55.812;37.560;2022-07-23T12:25:34;99366.13;;;40.37;23.43
33496;BME280;19836;55.812;37.560;2022-07-23T12:28:19;99357.84;;;41.49;22.14
33496;BME280;19836;55.812;37.560;2022-07-23T12:30:46;99363.59;;;42.03;21.19
33496;BME280;19836;55.812;37.560;2022-07-23T12:33:24;99356.72;;;42.49;20.42
33496;BME280;19836;55.812;37.560;2022-07-23T12:35:51;99354.00;;;42.97;19.91
33496;BME280;19836;55.812;37.560;2022-07-23T12:38:19;99355.69;;;43.19;19.56
33496;BME280;19836;55.812;37.560;2022-07-23T12:43:33;99354.81;;;42.00;19.67
33496;BME280;19836;55.812;37.560;2022-07-23T12:46:10;99346.16;;;39.69;21.74
33496;BME280;19836;55.812;37.560;2022-07-23T12:48:38;99350.31;;;37.75;23.64
33496;BME280;19836;55.812;37.560;2022-07-23T12:51:28;99350.47;;;37.25;24.79
33496;BME280;19836;55.812;37.560;2022-07-23T12:54:04;99350.34;;;39.08;23.31
33496;BME280;19836;55.812;37.560;2022-07-23T12:56:36;99341.78;;;40.42;22.54
33496;BME280;19836;55.812;37.560;2022-07-23T12:59:10;99334.84;;;41.24;20.80
33496;BME280;19836;55.812;37.560;2022-07-23T13:01:41;99342.94;;;41.37;20.07
33496;BME280;19836;55.812;37.560;2022-07-23T13:04:09;99334.97;;;41.62;20.22
33496;BME280;19836;55.812;37.560;2022-07-23T13:06:42;99341.59;;;42.00;19.55
33496;BME280;19836;55.812;37.560;2022-07-23T13:09:10;99338.31;;;41.92;19.52
33496;BME280;19836;55.812;37.560;2022-07-23T13:11:38;99335.59;;;42.30;19.89
33496;BME280;19836;55.812;37.560;2022-07-23T13:14:05;99344.91;;;42.52;19.26
33496;BME280;19836;55.812;37.560;2022-07-23T13:16:32;99336.63;;;42.62;19.06
33496;BME280;19836;55.812;37.560;2022-07-23T13:18:59;99338.13;;;42.91;18.87
33496;BME280;19836;55.812;37.560;2022-07-23T13:21:26;99325.28;;;43.00;18.72
33496;BME280;19836;55.812;37.560;2022-07-23T13:23:53;99324.28;;;42.89;19.03
33496;BME280;19836;55.812;37.560;2022-07-23T13:26:19;99329.09;;;42.89;19.01
33496;BME280;19836;55.812;37.560;2022-07-23T13:28:46;99324.63;;;42.93;19.29
33496;BME280;19836;55.812;37.560;2022-07-23T13:31:13;99321.06;;;42.81;18.84
33496;BME280;19836;55.812;37.560;2022-07-23T13:33:38;99318.25;;;43.03;18.75
33496;BME280;19836;55.812;37.560;2022-07-23T13:36:05;99318.28;;;43.29;18.06
33496;BME280;19836;55.812;37.560;2022-07-23T13:38:31;99316.38;;;43.08;18.04
33496;BME280;19836;55.812;37.560;2022-07-23T13:40:57;99316.03;;;43.31;18.41
33496;BME280;19836;55.812;37.560;2022-07-23T13:43:24;99307.91;;;43.66;17.94
33496;BME280;19836;55.812;37.560;2022-07-23T13:45:51;99309.06;;;43.70;17.74
33496;BME280;19836;55.812;37.560;2022-07-23T13:48:18;99308.91;;;43.50;17.77
33496;BME280;19836;55.812;37.560;2022-07-23T13:50:45;99304.59;;;43.43;18.21
33496;BME280;19836;55.812;37.560;2022-07-23T13:53:14;99303.28;;;43.28;18.08
33496;BME280;19836;55.812;37.560;2022-07-23T13:55:41;99316.38;;;43.08;18.44
33496;BME280;19836;55.812;37.560;2022-07-23T13:58:08;99311.41;;;43.20;18.29
33496;BME280;19836;55.812;37.560;2022-07-23T14:00:37;99312.06;;;43.32;18.34
33496;BME280;19836;55.812;37.560;2022-07-23T14:03:03;99312.19;;;43.42;18.10
33496;BME280;19836;55.812;37.560;2022-07-23T14:05:30;99302.41;;;43.23;18.34
33496;BME280;19836;55.812;37.560;2022-07-23T14:07:57;99303.16;;;41.94;19.10
33496;BME280;19836;55.812;37.560;2022-07-23T14:10:23;99297.91;;;39.61;21.17
33496;BME280;19836;55.812;37.560;2022-07-23T14:12:51;99303.63;;;37.76;22.76
33496;BME280;19836;55.812;37.560;2022-07-23T14:15:19;99301.91;;;36.38;24.29
33496;BME280;19836;55.812;37.560;2022-07-23T14:17:45;99294.16;;;35.37;25.86
33496;BME280;19836;55.812;37.560;2022-07-23T14:20:13;99297.75;;;35.64;25.84
33496;BME280;19836;55.812;37.560;2022-07-23T14:22:39;99289.19;;;35.26;26.27
33496;BME280;19836;55.812;37.560;2022-07-23T14:25:06;99288.44;;;34.72;26.77
33496;BME280;19836;55.812;37.560;2022-07-23T14:27:33;99292.16;;;34.32;27.40
33496;BME280;19836;55.812;37.560;2022-07-23T14:29:59;99297.88;;;33.90;28.30
33496;BME280;19836;55.812;37.560;2022-07-23T14:32:25;99294.94;;;33.98;28.37
33496;BME280;19836;55.812;37.560;2022-07-23T14:34:51;99286.88;;;34.10;28.51
33496;BME280;19836;55.812;37.560;2022-07-23T14:37:18;99289.13;;;33.66;28.96
33496;BME280;19836;55.812;37.560;2022-07-23T14:39:44;99281.34;;;33.27;29.42
33496;BME280;19836;55.812;37.560;2022-07-23T14:42:11;99281.03;;;32.95;30.04
33496;BME280;19836;55.812;37.560;2022-07-23T14:44:37;99281.06;;;33.43;30.59
33496;BME280;19836;55.812;37.560;2022-07-23T14:47:04;99279.38;;;34.10;29.94
33496;BME280;19836;55.812;37.560;2022-07-23T14:49:31;99288.00;;;34.22;29.49
33496;BME280;19836;55.812;37.560;2022-07-23T14:51:58;99273.72;;;34.31;29.48
33496;BME280;19836;55.812;37.560;2022-07-23T14:54:27;99270.34;;;34.42;28.32
33496;BME280;19836;55.812;37.560;2022-07-23T14:56:56;99274.31;;;34.80;27.40
33496;BME280;19836;55.812;37.560;2022-07-23T14:59:22;99270.97;;;35.50;27.03
33496;BME280;19836;55.812;37.560;2022-07-23T15:01:48;99268.31;;;36.00;26.32
33496;BME280;19836;55.812;37.560;2022-07-23T15:04:16;99276.41;;;36.15;26.40
33496;BME280;19836;55.812;37.560;2022-07-23T15:06:42;99273.31;;;35.46;26.82
33496;BME280;19836;55.812;37.560;2022-07-23T15:09:08;99276.06;;;34.88;27.19
33496;BME280;19836;55.812;37.560;2022-07-23T15:11:34;99270.19;;;34.10;27.90
33496;BME280;19836;55.812;37.560;2022-07-23T15:14:02;99277.22;;;33.44;28.67
33496;BME280;19836;55.812;37.560;2022-07-23T15:16:29;99275.75;;;33.00;29.51
33496;BME280;19836;55.812;37.560;2022-07-23T15:18:55;99260.38;;;32.62;30.58
33496;BME280;19836;55.812;37.560;2022-07-23T15:21:22;99268.78;;;32.33;31.22
33496;BME280;19836;55.812;37.560;2022-07-23T15:23:50;99265.09;;;32.11;31.88
33496;BME280;19836;55.812;37.560;2022-07-23T15:26:17;99261.38;;;31.90;32.58
33496;BME280;19836;55.812;37.560;2022-07-23T15:28:43;99262.13;;;31.69;33.20
33496;BME280;19836;55.812;37.560;2022-07-23T15:31:09;99258.00;;;31.51;33.33
33496;BME280;19836;55.812;37.560;2022-07-23T15:33:35;99256.94;;;31.37;33.36
33496;BME280;19836;55.812;37.560;2022-07-23T15:36:02;99254.66;;;31.26;33.95
33496;BME280;19836;55.812;37.560;2022-07-23T15:38:28;99264.06;;;31.17;34.69
33496;BME280;19836;55.812;37.560;2022-07-23T15:40:54;99256.88;;;31.08;35.14
33496;BME280;19836;55.812;37.560;2022-07-23T15:43:24;99263.63;;;31.05;35.70
33496;BME280;19836;55.812;37.560;2022-07-23T15:45:50;99261.22;;;31.02;35.62
33496;BME280;19836;55.812;37.560;2022-07-23T15:48:18;99258.41;;;31.10;36.40
33496;BME280;19836;55.812;37.560;2022-07-23T15:50:44;99256.50;;;31.11;36.63
33496;BME280;19836;55.812;37.560;2022-07-23T15:53:11;99248.63;;;31.00;36.48
33496;BME280;19836;55.812;37.560;2022-07-23T15:55:38;99244.72;;;31.09;36.21
33496;BME280;19836;55.812;37.560;2022-07-23T15:58:04;99251.31;;;31.08;35.88
33496;BME280;19836;55.812;37.560;2022-07-23T16:00:31;99252.84;;;30.96;36.55
33496;BME280;19836;55.812;37.560;2022-07-23T16:02:57;99255.31;;;30.91;36.77
33496;BME280;19836;55.812;37.560;2022-07-23T16:05:22;99252.72;;;30.89;37.19
33496;BME280;19836;55.812;37.560;2022-07-23T16:08:00;99257.78;;;30.86;37.54
33496;BME280;19836;55.812;37.560;2022-07-23T16:10:26;99253.47;;;30.83;37.62
33496;BME280;19836;55.812;37.560;2022-07-23T16:12:53;99253.81;;;30.80;36.92
33496;BME280;19836;55.812;37.560;2022-07-23T16:15:19;99248.38;;;30.73;37.21
33496;BME280;19836;55.812;37.560;2022-07-23T16:17:45;99247.19;;;30.67;37.85
33496;BME280;19836;55.812;37.560;2022-07-23T16:20:11;99254.28;;;30.61;38.61
33496;BME280;19836;55.812;37.560;2022-07-23T16:22:42;99250.91;;;30.51;38.02
33496;BME280;19836;55.812;37.560;2022-07-23T16:25:08;99249.78;;;30.38;37.98
33496;BME280;19836;55.812;37.560;2022-07-23T16:27:35;99250.94;;;30.21;38.41
33496;BME280;19836;55.812;37.560;2022-07-23T16:30:03;99244.78;;;30.11;38.64
33496;BME280;19836;55.812;37.560;2022-07-23T16:32:29;99243.41;;;29.99;39.09
33496;BME280;19836;55.812;37.560;2022-07-23T16:34:55;99244.69;;;29.88;39.35
33496;BME280;19836;55.812;37.560;2022-07-23T16:37:21;99248.53;;;29.79;39.34
33496;BME280;19836;55.812;37.560;2022-07-23T16:39:47;99248.94;;;29.68;39.44
33496;BME280;19836;55.812;37.560;2022-07-23T16:42:12;99241.69;;;29.51;40.16
33496;BME280;19836;55.812;37.560;2022-07-23T16:44:39;99242.63;;;29.36;40.32
33496;BME280;19836;55.812;37.560;2022-07-23T16:47:07;99254.22;;;29.23;40.85
33496;BME280;19836;55.812;37.560;2022-07-23T16:49:33;99245.59;;;29.10;40.86
33496;BME280;19836;55.812;37.560;2022-07-23T16:52:01;99240.75;;;28.96;41.27
33496;BME280;19836;55.812;37.560;2022-07-23T16:54:28;99245.56;;;28.86;41.55
33496;BME280;19836;55.812;37.560;2022-07-23T16:56:54;99245.09;;;28.75;41.74
33496;BME280;19836;55.812;37.560;2022-07-23T16:59:20;99244.19;;;28.66;41.98
33496;BME280;19836;55.812;37.560;2022-07-23T17:01:46;99243.50;;;28.56;42.11
33496;BME280;19836;55.812;37.560;2022-07-23T17:04:12;99241.81;;;28.47;42.29
33496;BME280;19836;55.812;37.560;2022-07-23T17:06:38;99241.41;;;28.34;42.56
33496;BME280;19836;55.812;37.560;2022-07-23T17:09:04;99250.00;;;28.23;42.67
33496;BME280;19836;55.812;37.560;2022-07-23T17:11:33;99252.03;;;28.13;43.05
33496;BME280;19836;55.812;37.560;2022-07-23T17:13:58;99244.63;;;28.06;43.35
33496;BME280;19836;55.812;37.560;2022-07-23T17:16:24;99245.97;;;27.94;43.81
33496;BME280;19836;55.812;37.560;2022-07-23T17:18:53;99252.31;;;27.86;43.79
33496;BME280;19836;55.812;37.560;2022-07-23T17:21:19;99255.31;;;27.75;43.97
33496;BME280;19836;55.812;37.560;2022-07-23T17:23:47;99267.16;;;27.68;44.26
33496;BME280;19836;55.812;37.560;2022-07-23T17:26:13;99261.13;;;27.64;44.96
33496;BME280;19836;55.812;37.560;2022-07-23T17:28:39;99259.03;;;27.58;44.78
33496;BME280;19836;55.812;37.560;2022-07-23T17:31:05;99261.56;;;27.52;44.83
33496;BME280;19836;55.812;37.560;2022-07-23T17:33:32;99268.78;;;27.45;44.96
33496;BME280;19836;55.812;37.560;2022-07-23T17:35:58;99267.16;;;27.34;45.15
33496;BME280;19836;55.812;37.560;2022-07-23T17:38:24;99273.47;;;27.27;45.17
33496;BME280;19836;55.812;37.560;2022-07-23T17:40:50;99269.81;;;27.18;45.24
33496;BME280;19836;55.812;37.560;2022-07-23T17:43:16;99272.47;;;27.10;45.06